createdAt,value
2022-07-30T00:02:16.531Z,8.13
2022-07-30T00:04:46.327Z,5.80
2022-07-30T00:07:14.811Z,5.00
2022-07-30T00:09:43.074Z,5.33
2022-07-30T00:12:11.438Z,5.43
2022-07-30T00:14:39.561Z,4.27
2022-07-30T00:17:07.928Z,4.27
2022-07-30T00:19:36.654Z,6.93
2022-07-30T00:22:06.360Z,6.33
2022-07-30T00:24:34.595Z,5.40
2022-07-30T00:27:03.659Z,4.53
2022-07-30T00:29:32.211Z,4.30
2022-07-30T00:32:00.655Z,5.80
2022-07-30T00:34:29.453Z,4.93
2022-07-30T00:36:58.256Z,6.30
2022-07-30T00:39:29.648Z,6.27
2022-07-30T00:41:59.911Z,3.83
2022-07-30T00:44:28.873Z,4.77
2022-07-30T00:46:57.716Z,5.03
2022-07-30T00:49:26.834Z,5.87
2022-07-30T00:51:55.139Z,5.40
2022-07-30T00:54:23.371Z,5.70
2022-07-30T00:56:53.140Z,3.97
2022-07-30T00:59:22.274Z,4.30
2022-07-30T01:01:50.575Z,4.10
2022-07-30T01:04:18.759Z,4.10
2022-07-30T01:06:47.010Z,4.70
2022-07-30T01:09:15.203Z,4.77
2022-07-30T01:11:43.677Z,4.13
2022-07-30T01:14:13.736Z,4.70
2022-07-30T01:16:44.782Z,4.33
2022-07-30T01:19:36.395Z,4.70
2022-07-30T01:22:12.726Z,4.73
2022-07-30T01:24:44.190Z,4.07
2022-07-30T01:27:19.400Z,6.90
2022-07-30T01:29:48.996Z,4.63
2022-07-30T01:32:18.030Z,3.80
2022-07-30T01:34:46.748Z,5.43
2022-07-30T01:37:15.230Z,3.97
2022-07-30T01:39:43.742Z,6.47
2022-07-30T01:42:15.105Z,7.10
2022-07-30T01:44:43.903Z,5.57
2022-07-30T01:47:12.823Z,4.20
2022-07-30T01:49:42.500Z,3.83
2022-07-30T01:52:11.396Z,5.20
2022-07-30T01:54:40.305Z,5.77
2022-07-30T01:57:09.037Z,4.73
2022-07-30T01:59:41.041Z,5.23
2022-07-30T02:02:09.232Z,5.37
2022-07-30T02:04:37.321Z,7.17
2022-07-30T02:07:07.991Z,5.47
2022-07-30T02:09:39.136Z,5.47
2022-07-30T02:12:31.514Z,6.07
2022-07-30T02:15:13.014Z,4.90
2022-07-30T02:17:45.289Z,8.30
2022-07-30T02:20:15.007Z,5.63
2022-07-30T02:22:47.079Z,7.37
2022-07-30T02:25:18.925Z,5.87
2022-07-30T02:27:49.098Z,8.63
2022-07-30T02:30:19.170Z,9.17
2022-07-30T02:32:48.706Z,5.80
2022-07-30T02:35:19.981Z,6.70
2022-07-30T02:37:49.763Z,8.07
2022-07-30T02:40:19.501Z,5.13
2022-07-30T02:42:48.915Z,6.20
2022-07-30T02:45:23.252Z,8.70
2022-07-30T02:47:53.473Z,6.07
2022-07-30T02:50:22.144Z,6.87
2022-07-30T02:52:51.055Z,6.73
2022-07-30T02:55:19.985Z,4.93
2022-07-30T02:57:48.678Z,6.63
2022-07-30T03:00:17.303Z,6.73
2022-07-30T03:02:47.584Z,5.90
2022-07-30T03:05:17.281Z,5.37
2022-07-30T03:07:46.371Z,6.93
2022-07-30T03:10:14.918Z,6.10
2022-07-30T03:12:46.162Z,9.27
2022-07-30T03:15:14.526Z,5.30
2022-07-30T03:17:49.934Z,5.53
2022-07-30T03:20:20.154Z,6.90
2022-07-30T03:22:52.133Z,9.30
2022-07-30T03:25:23.900Z,5.60
2022-07-30T03:27:53.198Z,7.07
2022-07-30T03:30:23.386Z,6.37
2022-07-30T03:32:53.809Z,5.20
2022-07-30T03:35:25.018Z,6.30
2022-07-30T03:37:56.253Z,8.53
2022-07-30T03:40:24.818Z,7.07
2022-07-30T03:42:53.710Z,6.27
2022-07-30T03:45:24.725Z,5.93
2022-07-30T03:47:58.455Z,10.50
2022-07-30T03:50:26.828Z,7.30
2022-07-30T03:52:55.393Z,8.10
2022-07-30T03:55:23.741Z,6.63
2022-07-30T03:57:52.136Z,11.37
2022-07-30T04:00:27.229Z,8.37
2022-07-30T04:02:57.322Z,7.80
2022-07-30T04:05:47.746Z,5.10
2022-07-30T04:08:15.885Z,4.83
2022-07-30T04:10:45.393Z,8.07
2022-07-30T04:13:44.893Z,6.07
2022-07-30T04:16:41.633Z,7.00
2022-07-30T04:19:13.927Z,9.50
2022-07-30T04:21:43.391Z,6.53
2022-07-30T04:24:12.760Z,6.83
2022-07-30T04:26:41.311Z,5.90
2022-07-30T04:29:13.475Z,6.87
2022-07-30T04:31:46.052Z,6.37
2022-07-30T04:34:38.571Z,8.10
2022-07-30T04:37:09.345Z,7.90
2022-07-30T04:39:37.507Z,10.73
2022-07-30T04:42:05.752Z,6.93
2022-07-30T04:44:40.092Z,8.33
2022-07-30T04:47:34.296Z,5.20
2022-07-30T04:50:23.421Z,6.67
2022-07-30T04:52:52.397Z,7.70
2022-07-30T04:55:27.151Z,7.70
2022-07-30T04:57:56.420Z,4.93
2022-07-30T05:00:24.826Z,7.07
2022-07-30T05:02:54.334Z,5.53
2022-07-30T05:05:26.264Z,6.20
2022-07-30T05:07:56.455Z,5.70
2022-07-30T05:10:24.705Z,11.97
2022-07-30T05:12:53.184Z,7.43
2022-07-30T05:15:23.318Z,7.87
2022-07-30T05:18:05.733Z,6.80
2022-07-30T05:20:38.662Z,6.33
2022-07-30T05:23:13.502Z,7.87
2022-07-30T05:25:43.758Z,9.30
2022-07-30T05:28:29.016Z,6.63
2022-07-30T05:31:00.234Z,12.67
2022-07-30T05:33:42.267Z,10.10
2022-07-30T05:36:14.309Z,10.00
2022-07-30T05:38:42.601Z,8.30
2022-07-30T05:41:32.928Z,6.67
2022-07-30T05:44:24.743Z,9.37
2022-07-30T05:46:53.545Z,8.03
2022-07-30T05:49:21.907Z,9.43
2022-07-30T05:51:51.931Z,12.03
2022-07-30T05:54:20.210Z,7.80
2022-07-30T05:57:07.087Z,7.60
2022-07-30T05:59:42.412Z,11.13
2022-07-30T06:02:12.176Z,6.73
2022-07-30T06:04:56.900Z,10.97
2022-07-30T06:07:26.767Z,8.07
2022-07-30T06:10:00.162Z,11.90
2022-07-30T06:12:29.269Z,12.73
2022-07-30T06:14:57.530Z,10.87
2022-07-30T06:17:41.239Z,10.37
2022-07-30T06:20:28.224Z,8.77
2022-07-30T06:23:16.610Z,10.43
2022-07-30T06:26:07.806Z,11.87
2022-07-30T06:28:38.476Z,9.47
2022-07-30T06:31:15.450Z,9.03
2022-07-30T06:33:44.397Z,12.47
2022-07-30T06:36:13.765Z,8.70
2022-07-30T06:39:04.129Z,10.03
2022-07-30T06:41:52.662Z,10.93
2022-07-30T06:44:21.105Z,12.67
2022-07-30T06:47:26.052Z,10.47
2022-07-30T06:49:54.605Z,8.70
2022-07-30T06:52:23.260Z,12.97
2022-07-30T06:54:54.896Z,11.40
2022-07-30T06:57:42.598Z,11.97
2022-07-30T07:00:31.180Z,13.77
2022-07-30T07:03:11.373Z,15.07
2022-07-30T07:05:40.303Z,12.03
2022-07-30T07:08:11.638Z,10.33
2022-07-30T07:10:46.447Z,14.37
2022-07-30T07:13:20.682Z,11.77
2022-07-30T07:15:49.023Z,10.20
2022-07-30T07:18:21.184Z,21.27
2022-07-30T07:20:56.779Z,10.40
2022-07-30T07:23:25.371Z,12.17
2022-07-30T07:26:09.623Z,11.93
2022-07-30T07:28:38.099Z,10.70
2022-07-30T07:31:06.312Z,12.33
2022-07-30T07:33:34.598Z,9.67
2022-07-30T07:36:03.538Z,14.03
2022-07-30T07:38:34.444Z,12.43
2022-07-30T07:41:03.155Z,11.80
2022-07-30T07:43:33.699Z,9.33
2022-07-30T07:46:03.490Z,12.33
2022-07-30T07:48:34.198Z,12.47
2022-07-30T07:51:46.695Z,10.57
2022-07-30T07:54:21.577Z,14.73
2022-07-30T07:56:52.718Z,19.60
2022-07-30T07:59:36.120Z,11.67
2022-07-30T08:02:14.672Z,12.10
2022-07-30T08:05:00.531Z,10.47
2022-07-30T08:07:47.182Z,13.00
2022-07-30T08:10:34.270Z,10.57
2022-07-30T08:13:51.854Z,12.00
2022-07-30T08:16:29.505Z,13.93
2022-07-30T08:19:16.178Z,11.53
2022-07-30T08:22:03.314Z,15.00
2022-07-30T08:24:32.924Z,12.03
2022-07-30T08:27:01.673Z,11.03
2022-07-30T08:29:31.343Z,10.93
2022-07-30T08:32:01.137Z,10.30
2022-07-30T08:34:30.068Z,15.23
2022-07-30T08:36:59.397Z,10.33
2022-07-30T08:39:28.190Z,13.27
2022-07-30T08:42:05.048Z,12.63
2022-07-30T08:44:34.367Z,11.63
2022-07-30T08:47:04.706Z,12.43
2022-07-30T08:49:51.673Z,9.83
2022-07-30T08:52:25.220Z,10.97
2022-07-30T08:55:02.172Z,10.53
2022-07-30T08:57:31.646Z,12.67
2022-07-30T09:00:01.906Z,11.53
2022-07-30T09:02:34.093Z,11.60
2022-07-30T09:05:05.733Z,11.77
2022-07-30T09:07:35.001Z,14.73
2022-07-30T09:10:05.263Z,9.47
2022-07-30T09:12:36.683Z,8.23
2022-07-30T09:15:07.287Z,11.90
2022-07-30T09:17:55.946Z,11.53
2022-07-30T09:20:27.531Z,12.57
2022-07-30T09:22:57.322Z,8.50
2022-07-30T09:25:47.977Z,12.43
2022-07-30T09:28:41.793Z,9.07
2022-07-30T09:31:18.915Z,8.77
2022-07-30T09:34:25.035Z,12.63
2022-07-30T09:36:53.340Z,13.20
2022-07-30T09:39:32.387Z,10.30
2022-07-30T09:42:26.049Z,7.73
2022-07-30T09:45:06.919Z,10.53
2022-07-30T09:47:36.334Z,8.23
2022-07-30T09:50:09.586Z,9.73
2022-07-30T09:52:44.369Z,8.10
2022-07-30T09:55:31.528Z,7.07
2022-07-30T09:58:03.350Z,8.10
2022-07-30T10:00:34.456Z,6.97
2022-07-30T10:03:21.865Z,7.50
2022-07-30T10:06:33.930Z,11.43
2022-07-30T10:09:13.617Z,11.10
2022-07-30T10:11:44.687Z,7.30
2022-07-30T10:14:13.313Z,9.03
2022-07-30T10:16:42.334Z,10.73
2022-07-30T10:19:13.757Z,10.00
2022-07-30T10:22:06.375Z,10.13
2022-07-30T10:25:07.720Z,9.70
2022-07-30T10:27:57.163Z,9.10
2022-07-30T10:30:32.367Z,6.87
2022-07-30T10:33:01.575Z,8.47
2022-07-30T10:35:34.491Z,7.90
2022-07-30T10:38:13.677Z,8.33
2022-07-30T10:40:49.087Z,4.23
2022-07-30T10:43:31.696Z,4.40
2022-07-30T10:46:05.135Z,5.07
2022-07-30T10:48:37.548Z,4.57
2022-07-30T10:51:06.020Z,4.37
2022-07-30T10:53:38.189Z,5.83
2022-07-30T10:56:16.331Z,3.30
2022-07-30T10:59:04.893Z,4.60
2022-07-30T11:02:11.020Z,3.70
2022-07-30T11:04:41.133Z,7.50
2022-07-30T11:07:32.182Z,11.90
2022-07-30T11:10:05.264Z,5.77
2022-07-30T11:12:55.068Z,3.87
2022-07-30T11:15:24.013Z,6.33
2022-07-30T11:18:12.287Z,4.23
2022-07-30T11:20:43.208Z,5.23
2022-07-30T11:23:40.689Z,4.87
2022-07-30T11:26:14.087Z,9.33
2022-07-30T11:28:45.107Z,5.80
2022-07-30T11:31:55.707Z,5.10
2022-07-30T11:34:29.749Z,5.63
2022-07-30T11:37:19.111Z,5.47
2022-07-30T11:40:17.363Z,6.20
2022-07-30T11:43:18.901Z,6.10
2022-07-30T11:45:50.897Z,8.00
2022-07-30T11:48:21.016Z,9.50
2022-07-30T11:50:49.721Z,5.03
2022-07-30T11:53:20.449Z,8.70
2022-07-30T11:55:53.024Z,6.17
2022-07-30T11:58:28.274Z,6.50
2022-07-30T12:00:58.497Z,7.93
2022-07-30T12:03:29.919Z,7.33
2022-07-30T12:05:59.239Z,6.27
2022-07-30T12:08:35.469Z,4.40
2022-07-30T12:11:04.895Z,5.80
2022-07-30T12:13:44.004Z,7.87
2022-07-30T12:16:17.452Z,9.70
2022-07-30T12:18:46.699Z,6.50
2022-07-30T12:21:16.260Z,7.50
2022-07-30T12:23:54.709Z,8.70
2022-07-30T12:26:24.524Z,7.80
2022-07-30T12:28:57.261Z,4.40
2022-07-30T12:31:25.531Z,8.00
2022-07-30T12:33:56.313Z,6.77
2022-07-30T12:36:30.924Z,5.00
2022-07-30T12:39:00.097Z,6.30
2022-07-30T12:41:45.341Z,5.53
2022-07-30T12:44:40.018Z,7.27
2022-07-30T12:47:20.355Z,5.33
2022-07-30T12:49:49.599Z,6.10
2022-07-30T12:52:28.187Z,5.37
2022-07-30T12:54:59.476Z,4.20
2022-07-30T12:57:27.919Z,4.33
2022-07-30T13:00:07.289Z,5.43
2022-07-30T13:02:36.321Z,5.37
2022-07-30T13:05:11.746Z,3.53
2022-07-30T13:07:54.600Z,5.87
2022-07-30T13:10:25.143Z,4.37
2022-07-30T13:12:58.258Z,5.73
2022-07-30T13:15:27.890Z,2.90
2022-07-30T13:17:56.068Z,5.37
2022-07-30T13:20:24.237Z,3.97
2022-07-30T13:22:52.535Z,4.73
2022-07-30T13:25:20.883Z,5.00
2022-07-30T13:27:49.836Z,4.47
2022-07-30T13:30:18.355Z,5.23
2022-07-30T13:32:48.300Z,4.70
2022-07-30T13:35:17.657Z,5.17
2022-07-30T13:37:46.971Z,4.83
2022-07-30T13:40:15.403Z,4.43
2022-07-30T13:42:43.678Z,5.33
2022-07-30T13:45:12.395Z,6.40
2022-07-30T13:47:40.631Z,4.73
2022-07-30T13:50:10.855Z,5.63
2022-07-30T13:52:38.944Z,4.00
2022-07-30T13:55:07.814Z,4.10
2022-07-30T13:57:36.253Z,5.07
2022-07-30T14:00:08.790Z,4.40
2022-07-30T14:02:40.170Z,6.10
2022-07-30T14:05:10.710Z,3.20
2022-07-30T14:07:40.640Z,3.60
2022-07-30T14:10:09.811Z,4.00
2022-07-30T14:12:39.864Z,8.23
2022-07-30T14:15:09.701Z,2.93
2022-07-30T14:17:37.949Z,5.27
2022-07-30T14:20:07.459Z,4.03
2022-07-30T14:22:37.499Z,5.17
2022-07-30T14:25:06.551Z,3.23
2022-07-30T14:27:35.136Z,2.30
2022-07-30T14:30:04.596Z,3.03
2022-07-30T14:32:32.904Z,4.97
2022-07-30T14:35:01.269Z,2.10
2022-07-30T14:37:29.758Z,4.50
2022-07-30T14:39:59.433Z,3.43
2022-07-30T14:42:27.715Z,2.70
2022-07-30T14:44:57.036Z,3.47
2022-07-30T14:47:25.410Z,3.10
2022-07-30T14:49:54.549Z,3.90
2022-07-30T14:52:22.644Z,5.80
2022-07-30T14:54:50.932Z,4.73
2022-07-30T14:57:20.808Z,2.30
2022-07-30T14:59:49.335Z,5.03
2022-07-30T15:02:17.551Z,2.50
2022-07-30T15:04:47.175Z,4.17
2022-07-30T15:07:15.521Z,4.03
2022-07-30T15:09:43.930Z,5.10
2022-07-30T15:12:13.245Z,3.73
2022-07-30T15:14:49.918Z,3.47
2022-07-30T15:17:18.126Z,5.43
2022-07-30T15:19:50.793Z,3.03
2022-07-30T15:22:20.022Z,2.43
2022-07-30T15:24:48.945Z,2.87
2022-07-30T15:27:17.878Z,2.13
2022-07-30T15:29:46.127Z,1.40
2022-07-30T15:32:17.084Z,1.67
2022-07-30T15:34:45.458Z,4.13
2022-07-30T15:37:13.875Z,1.30
2022-07-30T15:39:42.098Z,3.93
2022-07-30T15:42:10.333Z,3.00
2022-07-30T15:44:48.113Z,3.43
2022-07-30T15:47:18.510Z,4.63
2022-07-30T15:49:47.163Z,4.37
2022-07-30T15:52:15.869Z,1.80
2022-07-30T15:54:44.209Z,1.90
2022-07-30T15:57:12.336Z,2.77
2022-07-30T15:59:40.582Z,3.13
2022-07-30T16:02:08.919Z,1.37
2022-07-30T16:04:38.598Z,3.47
2022-07-30T16:07:09.857Z,1.03
2022-07-30T16:09:38.148Z,1.57
2022-07-30T16:12:07.788Z,1.40
2022-07-30T16:14:35.963Z,1.43
2022-07-30T16:17:05.033Z,1.53
2022-07-30T16:19:33.244Z,2.20
2022-07-30T16:22:03.450Z,1.67
2022-07-30T16:24:32.310Z,1.33
2022-07-30T16:27:01.623Z,3.83
2022-07-30T16:29:31.394Z,3.73
2022-07-30T16:31:59.872Z,3.57
2022-07-30T16:34:28.430Z,3.83
2022-07-30T16:36:56.733Z,2.03
2022-07-30T16:39:26.366Z,2.20
2022-07-30T16:41:54.740Z,2.30
2022-07-30T16:44:22.836Z,2.53
2022-07-30T16:46:51.006Z,2.37
2022-07-30T16:49:19.181Z,1.67
2022-07-30T16:51:47.531Z,1.50
2022-07-30T16:54:15.629Z,1.63
2022-07-30T16:56:45.120Z,1.90
2022-07-30T16:59:14.433Z,3.70
2022-07-30T17:01:42.522Z,3.33
2022-07-30T17:04:11.518Z,3.17
2022-07-30T17:06:41.313Z,4.27
2022-07-30T17:09:09.581Z,4.30
2022-07-30T17:11:47.177Z,4.47
2022-07-30T17:14:22.235Z,1.90
2022-07-30T17:16:50.811Z,2.33
2022-07-30T17:19:19.071Z,2.07
2022-07-30T17:21:47.480Z,1.40
2022-07-30T17:24:15.889Z,4.53
2022-07-30T17:26:46.774Z,3.03
2022-07-30T17:29:16.210Z,6.30
2022-07-30T17:31:45.391Z,2.37
2022-07-30T17:34:15.363Z,2.43
2022-07-30T17:36:51.607Z,3.43
2022-07-30T17:40:18.770Z,3.40
2022-07-30T17:42:12.655Z,3.07
2022-07-30T17:44:41.839Z,1.30
2022-07-30T17:47:15.157Z,4.63
2022-07-30T17:49:44.665Z,2.67
2022-07-30T17:52:12.797Z,2.93
2022-07-30T17:54:41.242Z,1.63
2022-07-30T17:57:09.427Z,4.17
2022-07-30T17:59:39.033Z,1.80
2022-07-30T18:02:07.442Z,3.43
2022-07-30T18:04:35.781Z,3.80
2022-07-30T18:07:04.043Z,1.63
2022-07-30T18:09:38.866Z,2.40
2022-07-30T18:12:09.318Z,3.03
2022-07-30T18:14:38.832Z,3.47
2022-07-30T18:17:11.188Z,1.57
2022-07-30T18:19:42.041Z,9.60
2022-07-30T18:22:10.505Z,2.30
2022-07-30T18:24:43.908Z,4.73
2022-07-30T18:27:12.739Z,2.40
2022-07-30T18:29:42.813Z,2.63
2022-07-30T18:32:11.640Z,1.80
2022-07-30T18:34:39.863Z,3.97
2022-07-30T18:37:08.075Z,8.20
2022-07-30T18:39:36.247Z,2.10
2022-07-30T18:42:04.900Z,2.63
2022-07-30T18:44:33.672Z,3.67
2022-07-30T18:47:03.188Z,2.70
2022-07-30T18:49:37.213Z,2.13
2022-07-30T18:52:08.025Z,3.73
2022-07-30T18:54:37.001Z,5.40
2022-07-30T18:57:05.984Z,3.20
2022-07-30T18:59:34.084Z,2.33
2022-07-30T19:02:04.744Z,3.60
2022-07-30T19:04:33.484Z,4.70
2022-07-30T19:07:01.785Z,2.57
2022-07-30T19:09:29.976Z,3.13
2022-07-30T19:11:58.169Z,2.13
2022-07-30T19:14:26.277Z,4.57
2022-07-30T19:16:54.448Z,2.93
2022-07-30T19:19:29.061Z,3.77
2022-07-30T19:21:57.346Z,5.60
2022-07-30T19:24:27.700Z,6.07
2022-07-30T19:26:56.329Z,4.97
2022-07-30T19:29:24.844Z,4.00
2022-07-30T19:31:53.078Z,4.77
2022-07-30T19:34:21.416Z,3.30
2022-07-30T19:36:51.012Z,4.43
2022-07-30T19:39:21.277Z,3.57
2022-07-30T19:41:50.941Z,2.47
2022-07-30T19:44:19.815Z,15.90
2022-07-30T19:46:48.709Z,6.40
2022-07-30T19:49:20.148Z,2.70
2022-07-30T19:52:11.055Z,5.57
2022-07-30T19:54:40.293Z,6.40
2022-07-30T19:57:09.181Z,6.90
2022-07-30T19:59:46.215Z,5.60
2022-07-30T20:02:25.997Z,5.03
2022-07-30T20:04:56.360Z,2.53
2022-07-30T20:07:27.541Z,3.87
2022-07-30T20:09:56.611Z,4.00
2022-07-30T20:12:26.600Z,2.60
2022-07-30T20:14:55.706Z,4.33
2022-07-30T20:17:24.852Z,2.80
2022-07-30T20:19:59.530Z,3.60
2022-07-30T20:22:29.369Z,3.53
2022-07-30T20:24:57.869Z,3.77
2022-07-30T20:27:38.265Z,4.23
2022-07-30T20:30:09.044Z,4.10
2022-07-30T20:32:37.491Z,3.10
2022-07-30T20:35:07.899Z,4.17
2022-07-30T20:37:40.265Z,4.33
2022-07-30T20:40:24.014Z,3.77
2022-07-30T20:42:53.428Z,3.27
2022-07-30T20:45:24.734Z,3.67
2022-07-30T20:47:59.350Z,5.93
2022-07-30T20:50:33.021Z,3.40
2022-07-30T20:53:02.852Z,6.17
2022-07-30T20:55:32.063Z,4.77
2022-07-30T20:58:13.868Z,3.20
2022-07-30T21:00:49.622Z,5.53
2022-07-30T21:03:23.264Z,2.40
2022-07-30T21:05:53.509Z,5.83
2022-07-30T21:08:25.655Z,4.23
2022-07-30T21:10:57.131Z,5.50
2022-07-30T21:13:26.375Z,7.40
2022-07-30T21:16:02.914Z,5.20
2022-07-30T21:18:32.807Z,6.07
2022-07-30T21:21:05.563Z,4.67
2022-07-30T21:23:35.690Z,4.10
2022-07-30T21:26:10.627Z,4.33
2022-07-30T21:28:43.198Z,2.53
2022-07-30T21:31:12.161Z,3.37
2022-07-30T21:33:42.586Z,3.10
2022-07-30T21:36:11.636Z,3.30
2022-07-30T21:38:45.171Z,3.13
2022-07-30T21:41:15.306Z,6.63
2022-07-30T21:43:44.998Z,3.30
2022-07-30T21:46:13.830Z,5.50
2022-07-30T21:48:44.504Z,3.60
2022-07-30T21:51:15.785Z,2.27
2022-07-30T21:53:46.497Z,2.47
2022-07-30T21:56:16.234Z,3.70
2022-07-30T21:58:45.560Z,6.77
2022-07-30T22:01:23.056Z,3.20
2022-07-30T22:04:03.989Z,5.50
2022-07-30T22:06:38.304Z,3.63
2022-07-30T22:09:19.723Z,2.80
2022-07-30T22:12:00.878Z,2.40
2022-07-30T22:14:31.624Z,2.90
2022-07-30T22:17:00.955Z,3.07
2022-07-30T22:19:32.958Z,3.17
2022-07-30T22:22:03.539Z,3.77
2022-07-30T22:24:36.089Z,3.43
2022-07-30T22:27:14.800Z,3.37
2022-07-30T22:29:44.313Z,3.07
2022-07-30T22:32:14.886Z,3.33
2022-07-30T22:34:44.831Z,4.53
2022-07-30T22:37:14.837Z,5.93
2022-07-30T22:39:51.637Z,2.77
2022-07-30T22:42:24.359Z,4.10
2022-07-30T22:45:11.106Z,4.20
2022-07-30T22:47:50.342Z,3.07
2022-07-30T22:50:23.905Z,4.60
2022-07-30T22:53:11.711Z,2.93
2022-07-30T22:55:47.550Z,2.20
2022-07-30T22:58:16.414Z,2.40
2022-07-30T23:00:45.040Z,6.43
2022-07-30T23:03:13.403Z,3.43
2022-07-30T23:05:55.913Z,4.17
2022-07-30T23:08:29.962Z,4.43
2022-07-30T23:11:01.027Z,2.73
2022-07-30T23:13:30.303Z,2.60
2022-07-30T23:15:58.633Z,3.43
2022-07-30T23:18:26.884Z,3.00
2022-07-30T23:20:58.515Z,2.60
2022-07-30T23:23:31.010Z,4.10
2022-07-30T23:26:03.676Z,3.53
2022-07-30T23:28:32.075Z,2.20
2022-07-30T23:31:00.334Z,2.93
2022-07-30T23:33:28.723Z,2.27
2022-07-30T23:35:56.899Z,2.53
2022-07-30T23:38:25.343Z,2.90
2022-07-30T23:40:53.582Z,2.60
2022-07-30T23:43:23.294Z,3.17
2022-07-30T23:45:51.645Z,2.77
2022-07-30T23:48:19.964Z,3.00
2022-07-30T23:50:48.357Z,4.00
2022-07-30T23:53:16.554Z,4.00
2022-07-30T23:55:47.289Z,3.10
2022-07-30T23:58:15.593Z,3.40
